sensor_id;sensor_type;location;lat;lon;timestamp;pressure;altitude;pressure_sealevel;temperature;humidity
37291;BME280;23175;-33.706;151.094;2023-02-04T00:00:16;98832.02;;;19.48;23.53
37291;BME280;23175;-33.706;151.094;2023-02-04T00:02:47;98842.78;;;19.19;24.38
37291;BME280;23175;-33.706;151.094;2023-02-04T00:05:17;98861.48;;;18.38;23.56
37291;BME280;23175;-33.706;151.094;2023-02-04T00:07:47;98859.67;;;17.68;23.97
37291;BME280;23175;-33.706;151.094;2023-02-04T00:10:16;98854.14;;;18.22;24.90
37291;BME280;23175;-33.706;151.094;2023-02-04T00:12:47;98853.27;;;16.98;23.53
37291;BME280;23175;-33.706;151.094;2023-02-04T00:15:17;98852.94;;;17.88;23.96
37291;BME280;23175;-33.706;151.094;2023-02-04T00:17:46;98850.25;;;18.11;25.39
37291;BME280;23175;-33.706;151.094;2023-02-04T00:20:15;98844.51;;;17.87;24.49
37291;BME280;23175;-33.706;151.094;2023-02-04T00:22:45;98849.25;;;19.68;24.86
37291;BME280;23175;-33.706;151.094;2023-02-04T00:25:14;98851.86;;;17.58;25.34
37291;BME280;23175;-33.706;151.094;2023-02-04T00:27:44;98844.94;;;18.63;24.21
37291;BME280;23175;-33.706;151.094;2023-02-04T00:30:13;98844.14;;;16.03;23.70
37291;BME280;23175;-33.706;151.094;2023-02-04T00:32:43;98842.44;;;17.15;24.29
37291;BME280;23175;-33.706;151.094;2023-02-04T00:35:12;98841.68;;;18.11;23.83
37291;BME280;23175;-33.706;151.094;2023-02-04T00:37:41;98853.57;;;18.43;22.61
37291;BME280;23175;-33.706;151.094;2023-02-04T00:40:12;98852.95;;;18.47;22.95
37291;BME280;23175;-33.706;151.094;2023-02-04T00:42:41;98862.96;;;18.54;22.74
37291;BME280;23175;-33.706;151.094;2023-02-04T00:45:12;98853.99;;;18.63;22.39
37291;BME280;23175;-33.706;151.094;2023-02-04T00:47:42;98846.14;;;18.22;23.23
37291;BME280;23175;-33.706;151.094;2023-02-04T00:50:11;98836.66;;;18.08;23.76
37291;BME280;23175;-33.706;151.094;2023-02-04T00:52:40;98832.41;;;19.57;22.56
37291;BME280;23175;-33.706;151.094;2023-02-04T00:55:10;98830.82;;;18.76;23.55
37291;BME280;23175;-33.706;151.094;2023-02-04T00:57:39;98825.28;;;20.33;20.59
37291;BME280;23175;-33.706;151.094;2023-02-04T01:00:10;98834.13;;;19.01;23.15
37291;BME280;23175;-33.706;151.094;2023-02-04T01:02:39;98836.49;;;17.32;23.36
37291;BME280;23175;-33.706;151.094;2023-02-04T01:05:09;98829.84;;;19.18;22.48
37291;BME280;23175;-33.706;151.094;2023-02-04T01:07:38;98827.55;;;21.79;19.94
37291;BME280;23175;-33.706;151.094;2023-02-04T01:10:08;98831.06;;;18.80;21.69
37291;BME280;23175;-33.706;151.094;2023-02-04T01:12:37;98825.66;;;18.70;22.13
37291;BME280;23175;-33.706;151.094;2023-02-04T01:15:07;98820.55;;;18.87;22.03
37291;BME280;23175;-33.706;151.094;2023-02-04T01:17:36;98826.82;;;19.44;22.30
37291;BME280;23175;-33.706;151.094;2023-02-04T01:20:06;98814.10;;;19.06;22.32
37291;BME280;23175;-33.706;151.094;2023-02-04T01:22:36;98814.68;;;19.99;22.13
37291;BME280;23175;-33.706;151.094;2023-02-04T01:25:06;98818.06;;;18.50;22.45
37291;BME280;23175;-33.706;151.094;2023-02-04T01:27:35;98818.41;;;18.37;22.06
37291;BME280;23175;-33.706;151.094;2023-02-04T01:30:06;98811.75;;;19.93;20.62
37291;BME280;23175;-33.706;151.094;2023-02-04T01:32:35;98803.18;;;18.97;21.45
37291;BME280;23175;-33.706;151.094;2023-02-04T01:35:05;98797.32;;;19.33;22.52
37291;BME280;23175;-33.706;151.094;2023-02-04T01:37:35;98798.63;;;19.54;21.23
37291;BME280;23175;-33.706;151.094;2023-02-04T01:40:05;98801.57;;;19.94;21.17
37291;BME280;23175;-33.706;151.094;2023-02-04T01:42:34;98804.80;;;19.51;21.33
37291;BME280;23175;-33.706;151.094;2023-02-04T01:45:05;98808.12;;;19.67;21.13
37291;BME280;23175;-33.706;151.094;2023-02-04T01:47:35;98801.61;;;20.75;21.42
37291;BME280;23175;-33.706;151.094;2023-02-04T01:50:08;98794.08;;;21.34;20.75
37291;BME280;23175;-33.706;151.094;2023-02-04T01:52:39;98800.29;;;21.56;21.26
37291;BME280;23175;-33.706;151.094;2023-02-04T01:55:14;98793.91;;;20.39;21.28
37291;BME280;23175;-33.706;151.094;2023-02-04T01:57:44;98786.21;;;20.70;19.67
37291;BME280;23175;-33.706;151.094;2023-02-04T02:00:16;98791.05;;;19.35;21.50
37291;BME280;23175;-33.706;151.094;2023-02-04T02:02:48;98794.87;;;19.76;22.21
37291;BME280;23175;-33.706;151.094;2023-02-04T02:05:20;98796.95;;;20.68;21.13
37291;BME280;23175;-33.706;151.094;2023-02-04T02:07:53;98788.53;;;21.65;20.60
37291;BME280;23175;-33.706;151.094;2023-02-04T02:10:24;98786.27;;;22.96;19.51
37291;BME280;23175;-33.706;151.094;2023-02-04T02:12:55;98788.43;;;20.43;20.94
37291;BME280;23175;-33.706;151.094;2023-02-04T02:15:25;98782.82;;;20.25;19.23
37291;BME280;23175;-33.706;151.094;2023-02-04T02:17:55;98774.28;;;21.79;17.68
37291;BME280;23175;-33.706;151.094;2023-02-04T02:20:26;98773.93;;;20.36;20.46
37291;BME280;23175;-33.706;151.094;2023-02-04T02:23:03;98776.69;;;19.27;19.40
37291;BME280;23175;-33.706;151.094;2023-02-04T02:25:34;98769.17;;;20.79;19.10
37291;BME280;23175;-33.706;151.094;2023-02-04T02:28:08;98763.92;;;21.25;19.22
37291;BME280;23175;-33.706;151.094;2023-02-04T02:30:38;98763.56;;;19.48;19.83
37291;BME280;23175;-33.706;151.094;2023-02-04T02:33:08;98768.70;;;20.58;20.20
37291;BME280;23175;-33.706;151.094;2023-02-04T02:35:37;98754.46;;;21.30;19.33
37291;BME280;23175;-33.706;151.094;2023-02-04T02:38:06;98763.44;;;20.52;20.58
37291;BME280;23175;-33.706;151.094;2023-02-04T02:40:36;98759.62;;;20.06;19.92
37291;BME280;23175;-33.706;151.094;2023-02-04T02:43:06;98764.39;;;21.00;20.44
37291;BME280;23175;-33.706;151.094;2023-02-04T02:45:37;98751.34;;;20.12;19.16
37291;BME280;23175;-33.706;151.094;2023-02-04T02:48:07;98763.66;;;20.33;20.11
37291;BME280;23175;-33.706;151.094;2023-02-04T02:50:37;98763.10;;;21.41;18.61
37291;BME280;23175;-33.706;151.094;2023-02-04T02:53:10;98767.24;;;20.31;20.43
37291;BME280;23175;-33.706;151.094;2023-02-04T02:55:41;98767.25;;;20.90;19.35
37291;BME280;23175;-33.706;151.094;2023-02-04T02:58:15;98766.00;;;19.78;20.16
37291;BME280;23175;-33.706;151.094;2023-02-04T03:00:46;98764.01;;;21.96;19.30
37291;BME280;23175;-33.706;151.094;2023-02-04T03:03:19;98766.89;;;20.85;20.17
37291;BME280;23175;-33.706;151.094;2023-02-04T03:05:53;98777.98;;;20.27;20.44
37291;BME280;23175;-33.706;151.094;2023-02-04T03:08:23;98773.12;;;20.14;19.50
37291;BME280;23175;-33.706;151.094;2023-02-04T03:10:53;98764.55;;;20.51;19.50
37291;BME280;23175;-33.706;151.094;2023-02-04T03:13:22;98765.20;;;22.24;19.21
37291;BME280;23175;-33.706;151.094;2023-02-04T03:15:52;98771.28;;;20.75;20.58
37291;BME280;23175;-33.706;151.094;2023-02-04T03:18:22;98765.16;;;20.39;20.38
37291;BME280;23175;-33.706;151.094;2023-02-04T03:20:52;98756.40;;;19.90;19.95
37291;BME280;23175;-33.706;151.094;2023-02-04T03:23:21;98760.28;;;22.76;18.85
37291;BME280;23175;-33.706;151.094;2023-02-04T03:25:52;98761.82;;;21.69;19.95
37291;BME280;23175;-33.706;151.094;2023-02-04T03:28:21;98758.99;;;21.81;21.57
37291;BME280;23175;-33.706;151.094;2023-02-04T03:30:51;98747.09;;;21.27;20.95
37291;BME280;23175;-33.706;151.094;2023-02-04T03:33:20;98757.52;;;21.37;20.17
37291;BME280;23175;-33.706;151.094;2023-02-04T03:35:49;98744.15;;;19.93;21.36
37291;BME280;23175;-33.706;151.094;2023-02-04T03:38:18;98749.39;;;21.66;19.43
37291;BME280;23175;-33.706;151.094;2023-02-04T03:40:48;98731.81;;;20.22;20.02
37291;BME280;23175;-33.706;151.094;2023-02-04T03:43:17;98730.43;;;22.28;19.09
37291;BME280;23175;-33.706;151.094;2023-02-04T03:45:46;98721.69;;;20.93;17.90
37291;BME280;23175;-33.706;151.094;2023-02-04T03:48:15;98723.84;;;20.60;18.75
37291;BME280;23175;-33.706;151.094;2023-02-04T03:50:45;98715.20;;;22.22;17.29
37291;BME280;23175;-33.706;151.094;2023-02-04T03:53:14;98708.30;;;20.63;17.48
37291;BME280;23175;-33.706;151.094;2023-02-04T03:55:43;98706.87;;;21.38;18.01
37291;BME280;23175;-33.706;151.094;2023-02-04T03:58:12;98707.14;;;23.85;17.24
37291;BME280;23175;-33.706;151.094;2023-02-04T04:00:42;98703.58;;;22.35;18.02
37291;BME280;23175;-33.706;151.094;2023-02-04T04:03:11;98705.46;;;23.23;18.00
37291;BME280;23175;-33.706;151.094;2023-02-04T04:05:40;98711.94;;;22.23;18.76
37291;BME280;23175;-33.706;151.094;2023-02-04T04:08:09;98710.08;;;21.14;18.40
37291;BME280;23175;-33.706;151.094;2023-02-04T04:10:38;98716.62;;;22.26;16.65
37291;BME280;23175;-33.706;151.094;2023-02-04T04:13:07;98718.46;;;22.10;16.67
37291;BME280;23175;-33.706;151.094;2023-02-04T04:15:37;98715.15;;;21.25;17.04
37291;BME280;23175;-33.706;151.094;2023-02-04T04:18:06;98701.63;;;21.56;17.77
37291;BME280;23175;-33.706;151.094;2023-02-04T04:20:35;98700.68;;;21.18;18.05
37291;BME280;23175;-33.706;151.094;2023-02-04T04:23:05;98700.54;;;20.99;18.16
37291;BME280;23175;-33.706;151.094;2023-02-04T04:25:34;98705.69;;;21.34;18.08
37291;BME280;23175;-33.706;151.094;2023-02-04T04:28:03;98705.35;;;21.52;17.67
37291;BME280;23175;-33.706;151.094;2023-02-04T04:30:32;98709.64;;;21.40;17.41
37291;BME280;23175;-33.706;151.094;2023-02-04T04:33:02;98720.25;;;22.01;16.34
37291;BME280;23175;-33.706;151.094;2023-02-04T04:35:31;98709.52;;;21.14;16.53
37291;BME280;23175;-33.706;151.094;2023-02-04T04:38:00;98704.90;;;21.35;15.97
37291;BME280;23175;-33.706;151.094;2023-02-04T04:40:29;98709.00;;;21.96;16.48
37291;BME280;23175;-33.706;151.094;2023-02-04T04:42:59;98709.76;;;22.78;16.63
37291;BME280;23175;-33.706;151.094;2023-02-04T04:45:28;98706.50;;;22.87;15.73
37291;BME280;23175;-33.706;151.094;2023-02-04T04:47:58;98705.69;;;23.60;16.91
37291;BME280;23175;-33.706;151.094;2023-02-04T04:50:27;98701.25;;;22.56;16.07
37291;BME280;23175;-33.706;151.094;2023-02-04T04:52:56;98699.01;;;22.22;15.91
37291;BME280;23175;-33.706;151.094;2023-02-04T04:55:25;98703.81;;;23.53;15.56
37291;BME280;23175;-33.706;151.094;2023-02-04T04:57:55;98701.90;;;22.33;15.51
37291;BME280;23175;-33.706;151.094;2023-02-04T05:00:24;98696.55;;;21.91;16.55
37291;BME280;23175;-33.706;151.094;2023-02-04T05:02:54;98697.67;;;21.71;16.50
37291;BME280;23175;-33.706;151.094;2023-02-04T05:05:22;98684.59;;;21.69;16.03
37291;BME280;23175;-33.706;151.094;2023-02-04T05:07:52;98683.93;;;23.43;15.26
37291;BME280;23175;-33.706;151.094;2023-02-04T05:10:21;98695.55;;;23.09;15.29
37291;BME280;23175;-33.706;151.094;2023-02-04T05:12:50;98693.14;;;21.81;16.58
37291;BME280;23175;-33.706;151.094;2023-02-04T05:15:19;98691.04;;;23.14;15.29
37291;BME280;23175;-33.706;151.094;2023-02-04T05:17:48;98699.71;;;21.94;16.11
37291;BME280;23175;-33.706;151.094;2023-02-04T05:20:18;98695.93;;;21.89;16.17
37291;BME280;23175;-33.706;151.094;2023-02-04T05:22:47;98698.35;;;22.15;16.46
37291;BME280;23175;-33.706;151.094;2023-02-04T05:25:17;98701.99;;;21.79;16.59
37291;BME280;23175;-33.706;151.094;2023-02-04T05:27:47;98692.17;;;23.31;15.64
37291;BME280;23175;-33.706;151.094;2023-02-04T05:30:16;98690.07;;;23.23;15.42
37291;BME280;23175;-33.706;151.094;2023-02-04T05:32:45;98686.47;;;22.54;17.29
37291;BME280;23175;-33.706;151.094;2023-02-04T05:35:14;98689.19;;;22.39;16.71
37291;BME280;23175;-33.706;151.094;2023-02-04T05:37:44;98692.38;;;23.17;16.81
37291;BME280;23175;-33.706;151.094;2023-02-04T05:40:14;98690.99;;;21.91;18.16
37291;BME280;23175;-33.706;151.094;2023-02-04T05:42:43;98688.10;;;22.92;16.67
37291;BME280;23175;-33.706;151.094;2023-02-04T05:45:15;98689.41;;;22.45;16.32
37291;BME280;23175;-33.706;151.094;2023-02-04T05:47:44;98695.21;;;22.02;16.94
37291;BME280;23175;-33.706;151.094;2023-02-04T05:50:14;98695.25;;;22.72;17.45
37291;BME280;23175;-33.706;151.094;2023-02-04T05:52:43;98684.05;;;23.31;16.70
37291;BME280;23175;-33.706;151.094;2023-02-04T05:55:12;98702.90;;;23.26;17.39
37291;BME280;23175;-33.706;151.094;2023-02-04T05:57:42;98699.08;;;21.01;17.42
37291;BME280;23175;-33.706;151.094;2023-02-04T06:00:14;98699.80;;;22.01;16.80
37291;BME280;23175;-33.706;151.094;2023-02-04T06:02:43;98708.67;;;22.18;16.93
37291;BME280;23175;-33.706;151.094;2023-02-04T06:05:13;98703.95;;;23.18;16.92
37291;BME280;23175;-33.706;151.094;2023-02-04T06:07:42;98698.81;;;21.88;16.88
37291;BME280;23175;-33.706;151.094;2023-02-04T06:10:11;98692.85;;;21.94;17.77
37291;BME280;23175;-33.706;151.094;2023-02-04T06:12:40;98694.24;;;23.03;16.39
37291;BME280;23175;-33.706;151.094;2023-02-04T06:15:10;98707.34;;;22.86;16.51
37291;BME280;23175;-33.706;151.094;2023-02-04T06:17:39;98712.64;;;22.21;17.79
37291;BME280;23175;-33.706;151.094;2023-02-04T06:20:10;98704.97;;;22.63;17.10
37291;BME280;23175;-33.706;151.094;2023-02-04T06:22:41;98712.06;;;21.33;18.02
37291;BME280;23175;-33.706;151.094;2023-02-04T06:25:10;98707.45;;;21.18;17.06
37291;BME280;23175;-33.706;151.094;2023-02-04T06:27:39;98710.21;;;23.79;16.11
37291;BME280;23175;-33.706;151.094;2023-02-04T06:30:11;98711.64;;;23.09;16.63
37291;BME280;23175;-33.706;151.094;2023-02-04T06:32:41;98713.67;;;21.46;17.14
37291;BME280;23175;-33.706;151.094;2023-02-04T06:35:10;98712.63;;;22.47;16.94
37291;BME280;23175;-33.706;151.094;2023-02-04T06:37:39;98733.86;;;21.41;17.51
37291;BME280;23175;-33.706;151.094;2023-02-04T06:40:11;98729.22;;;22.38;17.56
37291;BME280;23175;-33.706;151.094;2023-02-04T06:42:40;98727.84;;;22.43;17.04
37291;BME280;23175;-33.706;151.094;2023-02-04T06:45:09;98731.95;;;21.32;17.83
37291;BME280;23175;-33.706;151.094;2023-02-04T06:47:38;98736.25;;;21.52;17.62
37291;BME280;23175;-33.706;151.094;2023-02-04T06:50:09;98738.54;;;22.60;17.18
37291;BME280;23175;-33.706;151.094;2023-02-04T06:52:38;98734.97;;;22.52;16.94
37291;BME280;23175;-33.706;151.094;2023-02-04T06:55:07;98732.29;;;22.29;17.00
37291;BME280;23175;-33.706;151.094;2023-02-04T06:57:37;98745.58;;;22.50;16.89
37291;BME280;23175;-33.706;151.094;2023-02-04T07:00:07;98749.03;;;23.54;16.42
37291;BME280;23175;-33.706;151.094;2023-02-04T07:02:37;98757.74;;;21.41;17.43
37291;BME280;23175;-33.706;151.094;2023-02-04T07:05:07;98765.78;;;23.21;16.47
37291;BME280;23175;-33.706;151.094;2023-02-04T12:35:27;99334.54;;;26.81;20.52
37291;BME280;23175;-33.706;151.094;2023-02-04T12:37:57;99330.58;;;26.86;20.98
37291;BME280;23175;-33.706;151.094;2023-02-04T12:40:26;99333.44;;;25.97;21.31
37291;BME280;23175;-33.706;151.094;2023-02-04T12:42:55;99336.47;;;27.10;20.72
37291;BME280;23175;-33.706;151.094;2023-02-04T12:45:25;99337.66;;;27.59;20.34
37291;BME280;23175;-33.706;151.094;2023-02-04T12:47:54;99343.07;;;28.08;19.97
37291;BME280;23175;-33.706;151.094;2023-02-04T12:50:24;99345.43;;;28.17;19.81
37291;BME280;23175;-33.706;151.094;2023-02-04T12:52:55;99347.61;;;28.16;19.88
37291;BME280;23175;-33.706;151.094;2023-02-04T12:55:26;99349.05;;;27.81;20.15
37291;BME280;23175;-33.706;151.094;2023-02-04T12:57:55;99351.79;;;27.67;20.25
37291;BME280;23175;-33.706;151.094;2023-02-04T13:00:25;99353.41;;;28.39;20.09
37291;BME280;23175;-33.706;151.094;2023-02-04T13:02:54;99357.20;;;28.09;20.09
37291;BME280;23175;-33.706;151.094;2023-02-04T13:05:24;99359.05;;;27.66;20.15
37291;BME280;23175;-33.706;151.094;2023-02-04T13:07:53;99360.05;;;27.98;20.20
37291;BME280;23175;-33.706;151.094;2023-02-04T13:10:22;99357.92;;;28.01;20.20
37291;BME280;23175;-33.706;151.094;2023-02-04T13:12:52;99356.57;;;28.26;20.32
37291;BME280;23175;-33.706;151.094;2023-02-04T13:15:21;99356.89;;;27.63;20.32
37291;BME280;23175;-33.706;151.094;2023-02-04T13:17:50;99356.27;;;27.86;20.17
37291;BME280;23175;-33.706;151.094;2023-02-04T13:20:20;99358.06;;;27.77;20.12
37291;BME280;23175;-33.706;151.094;2023-02-04T13:22:49;99358.45;;;28.05;20.12
37291;BME280;23175;-33.706;151.094;2023-02-04T13:25:18;99360.18;;;28.12;20.08
37291;BME280;23175;-33.706;151.094;2023-02-04T13:27:48;99360.10;;;27.78;20.14
37291;BME280;23175;-33.706;151.094;2023-02-04T13:30:18;99361.82;;;27.54;20.12
37291;BME280;23175;-33.706;151.094;2023-02-04T13:32:47;99364.66;;;27.77;20.22
37291;BME280;23175;-33.706;151.094;2023-02-04T13:35:17;99367.51;;;27.67;20.25
37291;BME280;23175;-33.706;151.094;2023-02-04T13:37:46;99373.55;;;27.88;20.37
37291;BME280;23175;-33.706;151.094;2023-02-04T13:40:16;99377.86;;;27.34;20.38
37291;BME280;23175;-33.706;151.094;2023-02-04T13:42:45;99379.41;;;27.59;20.33
37291;BME280;23175;-33.706;151.094;2023-02-04T13:45:13;99380.33;;;27.45;20.41
37291;BME280;23175;-33.706;151.094;2023-02-04T13:47:42;99383.93;;;27.84;20.18
37291;BME280;23175;-33.706;151.094;2023-02-04T13:50:12;99390.02;;;27.51;20.18
37291;BME280;23175;-33.706;151.094;2023-02-04T13:52:41;99393.76;;;27.76;20.34
37291;BME280;23175;-33.706;151.094;2023-02-04T13:55:10;99391.85;;;27.50;20.62
37291;BME280;23175;-33.706;151.094;2023-02-04T13:57:39;99395.25;;;27.74;20.44
37291;BME280;23175;-33.706;151.094;2023-02-04T14:00:10;99394.72;;;27.99;20.39
37291;BME280;23175;-33.706;151.094;2023-02-04T14:02:39;99399.67;;;27.73;20.22
37291;BME280;23175;-33.706;151.094;2023-02-04T14:05:08;99398.70;;;27.62;20.25
37291;BME280;23175;-33.706;151.094;2023-02-04T14:07:37;99400.59;;;27.20;20.34
37291;BME280;23175;-33.706;151.094;2023-02-04T14:10:07;99397.42;;;27.53;20.27
37291;BME280;23175;-33.706;151.094;2023-02-04T14:12:37;99394.14;;;27.90;20.30
37291;BME280;23175;-33.706;151.094;2023-02-04T14:15:06;99400.63;;;27.08;20.47
37291;BME280;23175;-33.706;151.094;2023-02-04T14:17:35;99402.26;;;27.23;20.57
37291;BME280;23175;-33.706;151.094;2023-02-04T14:20:05;99409.33;;;27.77;20.55
37291;BME280;23175;-33.706;151.094;2023-02-04T14:22:34;99409.26;;;27.33;20.58
37291;BME280;23175;-33.706;151.094;2023-02-04T14:25:04;99407.69;;;27.73;20.58
37291;BME280;23175;-33.706;151.094;2023-02-04T14:27:33;99407.71;;;27.37;20.60
37291;BME280;23175;-33.706;151.094;2023-02-04T14:30:03;99407.57;;;27.30;20.75
37291;BME280;23175;-33.706;151.094;2023-02-04T14:32:32;99411.73;;;27.25;20.85
37291;BME280;23175;-33.706;151.094;2023-02-04T14:35:01;99407.47;;;27.29;20.84
37291;BME280;23175;-33.706;151.094;2023-02-04T14:37:31;99400.87;;;27.60;20.89
37291;BME280;23175;-33.706;151.094;2023-02-04T14:40:00;99397.82;;;27.54;20.99
37291;BME280;23175;-33.706;151.094;2023-02-04T14:42:30;99396.78;;;27.18;20.97
37291;BME280;23175;-33.706;151.094;2023-02-04T14:44:59;99392.92;;;27.06;21.09
37291;BME280;23175;-33.706;151.094;2023-02-04T14:47:29;99394.07;;;27.52;20.98
37291;BME280;23175;-33.706;151.094;2023-02-04T14:49:58;99390.51;;;26.98;21.08
37291;BME280;23175;-33.706;151.094;2023-02-04T14:52:27;99387.90;;;27.06;21.11
37291;BME280;23175;-33.706;151.094;2023-02-04T14:54:56;99386.74;;;27.51;21.15
37291;BME280;23175;-33.706;151.094;2023-02-04T14:57:26;99378.73;;;27.07;21.15
37291;BME280;23175;-33.706;151.094;2023-02-04T14:59:56;99375.50;;;27.11;21.12
37291;BME280;23175;-33.706;151.094;2023-02-04T15:02:25;99374.39;;;27.16;21.14
37291;BME280;23175;-33.706;151.094;2023-02-04T15:04:54;99365.17;;;27.53;21.21
37291;BME280;23175;-33.706;151.094;2023-02-04T15:07:23;99353.84;;;27.46;21.29
37291;BME280;23175;-33.706;151.094;2023-02-04T15:09:53;99349.53;;;27.34;21.33
37291;BME280;23175;-33.706;151.094;2023-02-04T15:12:22;99345.80;;;26.99;21.34
37291;BME280;23175;-33.706;151.094;2023-02-04T15:14:52;99339.68;;;27.45;21.20
37291;BME280;23175;-33.706;151.094;2023-02-04T15:17:21;99342.63;;;27.04;21.17
37291;BME280;23175;-33.706;151.094;2023-02-04T15:19:50;99345.89;;;26.92;21.28
37291;BME280;23175;-33.706;151.094;2023-02-04T15:22:20;99345.75;;;27.31;21.14
37291;BME280;23175;-33.706;151.094;2023-02-04T15:24:49;99345.52;;;27.35;21.12
37291;BME280;23175;-33.706;151.094;2023-02-04T15:27:18;99346.76;;;26.96;21.20
37291;BME280;23175;-33.706;151.094;2023-02-04T15:29:47;99351.65;;;26.73;21.34
37291;BME280;23175;-33.706;151.094;2023-02-04T15:32:16;99353.92;;;27.21;21.15
37291;BME280;23175;-33.706;151.094;2023-02-04T15:34:45;99354.51;;;26.74;21.17
37291;BME280;23175;-33.706;151.094;2023-02-04T15:37:15;99356.81;;;27.12;21.07
37291;BME280;23175;-33.706;151.094;2023-02-04T15:39:44;99352.18;;;27.15;21.11
37291;BME280;23175;-33.706;151.094;2023-02-04T15:42:14;99350.85;;;26.67;21.17
37291;BME280;23175;-33.706;151.094;2023-02-04T15:44:43;99349.54;;;27.02;21.24
37291;BME280;23175;-33.706;151.094;2023-02-04T15:47:13;99343.70;;;26.99;21.29
37291;BME280;23175;-33.706;151.094;2023-02-04T15:49:42;99349.18;;;27.09;21.21
37291;BME280;23175;-33.706;151.094;2023-02-04T15:52:11;99350.71;;;27.05;21.28
37291;BME280;23175;-33.706;151.094;2023-02-04T15:54:40;99352.35;;;27.03;21.33
37291;BME280;23175;-33.706;151.094;2023-02-04T15:57:10;99351.52;;;27.12;21.31
37291;BME280;23175;-33.706;151.094;2023-02-04T15:59:39;99352.45;;;27.10;21.44
37291;BME280;23175;-33.706;151.094;2023-02-04T16:02:09;99355.49;;;26.86;21.61
37291;BME280;23175;-33.706;151.094;2023-02-04T16:04:38;99360.80;;;26.98;21.55
37291;BME280;23175;-33.706;151.094;2023-02-04T16:07:07;99359.44;;;26.96;21.59
37291;BME280;23175;-33.706;151.094;2023-02-04T16:09:36;99358.29;;;26.81;21.67
37291;BME280;23175;-33.706;151.094;2023-02-04T16:12:05;99354.36;;;26.78;21.65
37291;BME280;23175;-33.706;151.094;2023-02-04T16:14:35;99350.47;;;26.92;21.56
37291;BME280;23175;-33.706;151.094;2023-02-04T16:17:05;99345.09;;;26.96;21.56
37291;BME280;23175;-33.706;151.094;2023-02-04T16:19:35;99347.79;;;26.86;21.71
37291;BME280;23175;-33.706;151.094;2023-02-04T16:22:04;99353.08;;;27.26;21.72
37291;BME280;23175;-33.706;151.094;2023-02-04T16:24:33;99352.67;;;26.81;21.80
37291;BME280;23175;-33.706;151.094;2023-02-04T16:27:03;99356.21;;;26.86;21.81
37291;BME280;23175;-33.706;151.094;2023-02-04T16:29:33;99360.11;;;26.78;21.87
37291;BME280;23175;-33.706;151.094;2023-02-04T16:32:02;99357.35;;;26.79;21.86
37291;BME280;23175;-33.706;151.094;2023-02-04T16:34:32;99353.08;;;26.84;21.86
37291;BME280;23175;-33.706;151.094;2023-02-04T16:37:01;99347.17;;;27.25;21.98
37291;BME280;23175;-33.706;151.094;2023-02-04T16:39:30;99351.25;;;26.53;22.09
37291;BME280;23175;-33.706;151.094;2023-02-04T16:41:59;99355.13;;;26.70;22.00
37291;BME280;23175;-33.706;151.094;2023-02-04T16:44:28;99357.75;;;26.73;21.87
37291;BME280;23175;-33.706;151.094;2023-02-04T16:46:58;99357.87;;;26.92;21.85
37291;BME280;23175;-33.706;151.094;2023-02-04T16:49:27;99358.27;;;26.66;21.81
37291;BME280;23175;-33.706;151.094;2023-02-04T16:51:57;99356.18;;;26.48;21.93
37291;BME280;23175;-33.706;151.094;2023-02-04T16:54:27;99351.78;;;26.63;21.77
37291;BME280;23175;-33.706;151.094;2023-02-04T16:56:56;99351.35;;;26.85;21.82
37291;BME280;23175;-33.706;151.094;2023-02-04T16:59:26;99346.50;;;26.41;21.90
37291;BME280;23175;-33.706;151.094;2023-02-04T17:01:56;99352.95;;;26.46;21.94
37291;BME280;23175;-33.706;151.094;2023-02-04T17:04:25;99361.32;;;26.91;21.87
37291;BME280;23175;-33.706;151.094;2023-02-04T17:06:55;99367.33;;;26.83;21.85
37291;BME280;23175;-33.706;151.094;2023-02-04T17:09:23;99371.95;;;26.45;21.96
37291;BME280;23175;-33.706;151.094;2023-02-04T17:11:54;99366.75;;;26.85;21.87
37291;BME280;23175;-33.706;151.094;2023-02-04T17:14:23;99358.77;;;27.09;21.82
37291;BME280;23175;-33.706;151.094;2023-02-04T17:16:53;99357.07;;;26.76;21.93
37291;BME280;23175;-33.706;151.094;2023-02-04T17:19:22;99362.51;;;26.35;22.08
37291;BME280;23175;-33.706;151.094;2023-02-04T17:21:51;99366.97;;;26.32;22.09
37291;BME280;23175;-33.706;151.094;2023-02-04T17:24:20;99372.43;;;26.43;21.97
37291;BME280;23175;-33.706;151.094;2023-02-04T17:26:50;99377.62;;;26.59;22.10
37291;BME280;23175;-33.706;151.094;2023-02-04T17:29:20;99384.42;;;26.47;22.24
37291;BME280;23175;-33.706;151.094;2023-02-04T17:31:49;99391.04;;;26.85;22.21
37291;BME280;23175;-33.706;151.094;2023-02-04T17:34:18;99390.39;;;26.72;22.04
37291;BME280;23175;-33.706;151.094;2023-02-04T17:36:48;99385.58;;;26.17;22.22
37291;BME280;23175;-33.706;151.094;2023-02-04T17:39:18;99386.73;;;26.53;22.21
37291;BME280;23175;-33.706;151.094;2023-02-04T17:41:47;99393.96;;;26.36;22.43
37291;BME280;23175;-33.706;151.094;2023-02-04T17:44:17;99403.10;;;26.53;22.31
37291;BME280;23175;-33.706;151.094;2023-02-04T17:46:47;99412.94;;;26.08;22.37
37291;BME280;23175;-33.706;151.094;2023-02-04T17:49:16;99418.28;;;26.33;22.47
37291;BME280;23175;-33.706;151.094;2023-02-04T17:51:45;99418.61;;;26.83;22.45
37291;BME280;23175;-33.706;151.094;2023-02-04T17:54:15;99421.22;;;26.17;22.53
37291;BME280;23175;-33.706;151.094;2023-02-04T17:56:45;99422.44;;;26.01;22.61
37291;BME280;23175;-33.706;151.094;2023-02-04T17:59:13;99419.16;;;26.27;22.46
37291;BME280;23175;-33.706;151.094;2023-02-04T18:01:43;99421.67;;;26.71;22.34
37291;BME280;23175;-33.706;151.094;2023-02-04T18:04:13;99426.22;;;26.00;22.49
37291;BME280;23175;-33.706;151.094;2023-02-04T18:06:42;99434.74;;;26.69;22.43
37291;BME280;23175;-33.706;151.094;2023-02-04T18:09:15;99448.13;;;26.50;22.56